createdAt,value
2022-10-21T00:01:06.485Z,11.63
2022-10-21T00:03:34.414Z,12.47
2022-10-21T00:06:02.328Z,12.80
2022-10-21T00:08:30.461Z,11.93
2022-10-21T00:11:01.686Z,12.50
2022-10-21T00:13:32.713Z,11.67
2022-10-21T00:16:02.773Z,12.90
2022-10-21T00:18:31.482Z,12.20
2022-10-21T00:20:59.298Z,12.83
2022-10-21T00:23:27.145Z,13.03
2022-10-21T00:25:58.133Z,12.73
2022-10-21T00:28:26.486Z,12.30
2022-10-21T00:30:58.136Z,12.93
2022-10-21T00:33:27.387Z,12.30
2022-10-21T00:35:57.163Z,12.83
2022-10-21T00:38:25.209Z,13.03
2022-10-21T00:40:53.110Z,13.03
2022-10-21T00:43:21.127Z,12.47
2022-10-21T00:45:52.527Z,13.33
2022-10-21T00:48:28.259Z,13.13
2022-10-21T00:50:59.647Z,12.67
2022-10-21T00:53:28.211Z,12.37
2022-10-21T00:56:00.917Z,11.67
2022-10-21T00:58:31.083Z,12.10
2022-10-21T01:01:01.621Z,11.70
2022-10-21T01:03:33.420Z,12.73
2022-10-21T01:06:03.840Z,12.40
2022-10-21T01:08:32.018Z,12.60
2022-10-21T01:11:01.216Z,12.77
2022-10-21T01:13:38.665Z,12.80
2022-10-21T01:16:15.499Z,11.70
2022-10-21T01:18:50.668Z,11.63
2022-10-21T01:21:32.433Z,12.43
2022-10-21T01:24:40.407Z,12.80
2022-10-21T01:27:34.751Z,12.80
2022-10-21T01:30:26.995Z,12.90
2022-10-21T01:33:21.427Z,12.23
2022-10-21T01:35:55.384Z,11.03
2022-10-21T01:38:29.103Z,12.23
2022-10-21T01:41:02.931Z,11.83
2022-10-21T01:43:38.467Z,11.90
2022-10-21T01:46:11.759Z,11.43
2022-10-21T01:48:46.033Z,12.07
2022-10-21T01:51:14.356Z,11.83
2022-10-21T01:53:51.532Z,10.63
2022-10-21T01:56:21.155Z,11.13
2022-10-21T01:58:50.491Z,10.30
2022-10-21T02:01:20.879Z,11.97
2022-10-21T02:03:55.523Z,12.03
2022-10-21T02:06:25.130Z,11.30
2022-10-21T02:08:53.283Z,11.37
2022-10-21T02:11:21.155Z,10.27
2022-10-21T02:13:55.173Z,10.37
2022-10-21T02:16:27.180Z,10.70
2022-10-21T02:18:57.667Z,10.83
2022-10-21T02:21:28.393Z,10.90
2022-10-21T02:23:59.768Z,11.23
2022-10-21T02:26:29.577Z,11.57
2022-10-21T02:28:59.173Z,10.97
2022-10-21T02:31:40.615Z,12.40
2022-10-21T02:34:21.337Z,10.80
2022-10-21T02:36:57.078Z,11.77
2022-10-21T02:39:31.045Z,10.50
2022-10-21T02:42:00.231Z,10.80
2022-10-21T02:44:28.057Z,11.77
2022-10-21T02:46:55.836Z,10.33
2022-10-21T02:49:24.995Z,10.13
2022-10-21T02:51:52.959Z,10.37
2022-10-21T02:54:20.891Z,10.90
2022-10-21T02:56:48.755Z,10.50
2022-10-21T02:59:16.643Z,9.87
2022-10-21T03:01:44.460Z,10.67
2022-10-21T03:04:12.303Z,10.63
2022-10-21T03:06:41.522Z,10.67
2022-10-21T03:09:09.367Z,10.30
2022-10-21T03:11:37.217Z,9.17
2022-10-21T03:14:05.023Z,8.93
2022-10-21T03:16:32.936Z,9.07
2022-10-21T03:19:00.767Z,8.97
2022-10-21T03:21:28.637Z,8.37
2022-10-21T03:23:57.836Z,7.90
2022-10-21T03:26:25.975Z,7.37
2022-10-21T03:28:53.782Z,7.00
2022-10-21T03:31:22.386Z,7.63
2022-10-21T03:33:50.187Z,6.90
2022-10-21T03:36:18.085Z,7.07
2022-10-21T03:38:45.915Z,7.30
2022-10-21T03:41:15.099Z,6.80
2022-10-21T03:43:43.043Z,6.63
2022-10-21T03:46:10.888Z,6.57
2022-10-21T03:48:38.790Z,5.87
2022-10-21T03:51:06.772Z,6.73
2022-10-21T03:53:49.599Z,5.83
2022-10-21T03:56:18.780Z,7.37
2022-10-21T03:58:46.622Z,6.53
2022-10-21T04:01:15.164Z,5.80
2022-10-21T04:03:43.084Z,6.10
2022-10-21T04:06:11.062Z,6.43
2022-10-21T04:08:38.947Z,6.10
2022-10-21T04:11:07.104Z,6.27
2022-10-21T04:13:36.447Z,6.10
2022-10-21T04:16:06.060Z,5.83
2022-10-21T04:18:34.278Z,5.67
2022-10-21T04:21:02.124Z,5.87
2022-10-21T04:23:29.960Z,5.57
2022-10-21T04:25:57.801Z,6.03
2022-10-21T04:28:25.707Z,6.03
2022-10-21T04:30:54.875Z,5.07
2022-10-21T04:33:22.700Z,5.50
2022-10-21T04:35:50.486Z,5.00
2022-10-21T04:38:18.311Z,5.23
2022-10-21T04:40:46.131Z,5.50
2022-10-21T04:43:13.941Z,5.53
2022-10-21T04:45:41.895Z,4.90
2022-10-21T04:48:11.052Z,5.00
2022-10-21T04:50:38.952Z,4.70
2022-10-21T04:53:06.905Z,4.90
2022-10-21T04:55:34.755Z,4.40
2022-10-21T04:58:02.547Z,4.30
2022-10-21T05:00:31.043Z,4.80
2022-10-21T05:02:59.291Z,4.73
2022-10-21T05:05:28.481Z,4.17
2022-10-21T05:07:56.361Z,4.13
2022-10-21T05:10:25.416Z,4.70
2022-10-21T05:12:53.596Z,4.27
2022-10-21T05:15:21.414Z,4.43
2022-10-21T05:17:49.227Z,4.27
2022-10-21T05:20:17.218Z,4.70
2022-10-21T05:22:46.896Z,4.50
2022-10-21T05:25:14.693Z,4.67
2022-10-21T05:27:42.513Z,4.30
2022-10-21T05:30:11.459Z,4.53
2022-10-21T05:32:39.924Z,4.30
2022-10-21T05:35:08.824Z,4.00
2022-10-21T05:37:36.708Z,3.97
2022-10-21T05:40:07.585Z,3.97
2022-10-21T05:42:35.544Z,4.33
2022-10-21T05:45:03.470Z,4.27
2022-10-21T05:47:31.270Z,4.60
2022-10-21T05:49:59.132Z,3.80
2022-10-21T05:52:26.957Z,3.80
2022-10-21T05:54:54.747Z,4.20
2022-10-21T05:57:23.868Z,4.40
2022-10-21T05:59:51.678Z,4.87
2022-10-21T06:02:19.536Z,3.87
2022-10-21T06:04:47.411Z,4.23
2022-10-21T06:07:15.231Z,4.47
2022-10-21T06:09:43.034Z,4.57
2022-10-21T06:12:10.916Z,5.13
2022-10-21T06:14:40.103Z,5.20
2022-10-21T06:17:07.983Z,5.57
2022-10-21T06:19:35.804Z,5.57
2022-10-21T06:22:03.722Z,4.83
2022-10-21T06:24:31.562Z,4.03
2022-10-21T06:26:59.515Z,4.30
2022-10-21T06:29:27.911Z,3.87
2022-10-21T06:31:57.085Z,3.50
2022-10-21T06:34:25.183Z,4.07
2022-10-21T06:36:53.115Z,3.90
2022-10-21T06:39:21.007Z,3.77
2022-10-21T06:41:48.855Z,3.77
2022-10-21T06:44:34.127Z,3.97
2022-10-21T06:47:03.310Z,3.87
2022-10-21T06:49:31.303Z,3.70
2022-10-21T06:51:59.119Z,3.63
2022-10-21T06:54:26.978Z,3.67
2022-10-21T06:56:54.748Z,4.20
2022-10-21T06:59:22.623Z,3.73
2022-10-21T07:02:05.840Z,3.57
2022-10-21T07:04:35.010Z,4.80
2022-10-21T07:07:02.833Z,4.20
2022-10-21T07:09:31.337Z,3.63
2022-10-21T07:12:01.269Z,3.93
2022-10-21T07:14:29.243Z,3.97
2022-10-21T07:16:57.092Z,4.00
2022-10-21T07:19:24.937Z,3.70
2022-10-21T07:21:54.101Z,3.67
2022-10-21T07:24:22.803Z,4.10
2022-10-21T07:26:51.627Z,4.00
2022-10-21T07:29:19.765Z,4.33
2022-10-21T07:31:47.655Z,4.23
2022-10-21T07:34:16.164Z,4.30
2022-10-21T07:36:47.844Z,3.97
2022-10-21T07:39:19.231Z,4.23
2022-10-21T07:41:49.680Z,4.70
2022-10-21T07:44:18.253Z,4.17
2022-10-21T07:46:46.522Z,4.27
2022-10-21T07:49:15.352Z,5.07
2022-10-21T07:51:45.134Z,4.93
2022-10-21T07:54:15.007Z,4.37
2022-10-21T07:56:46.952Z,5.50
2022-10-21T07:59:15.551Z,5.00
2022-10-21T08:04:24.527Z,4.77
2022-10-21T08:06:52.391Z,4.97
2022-10-21T08:09:20.252Z,4.70
2022-10-21T08:11:49.620Z,5.00
2022-10-21T08:14:17.438Z,5.37
2022-10-21T08:16:45.247Z,5.23
2022-10-21T08:19:19.314Z,4.90
2022-10-21T08:21:47.217Z,5.07
2022-10-21T08:24:15.090Z,5.60
2022-10-21T08:26:42.911Z,5.77
2022-10-21T08:29:12.077Z,6.33
2022-10-21T08:31:40.367Z,5.77
2022-10-21T08:34:08.366Z,5.93
2022-10-21T08:36:36.338Z,6.83
2022-10-21T08:39:04.512Z,6.33
2022-10-21T08:41:43.150Z,6.50
2022-10-21T08:44:24.927Z,5.87
2022-10-21T08:46:57.029Z,7.60
2022-10-21T08:49:29.983Z,5.73
2022-10-21T08:52:04.028Z,5.43
2022-10-21T08:54:41.042Z,6.07
2022-10-21T08:57:11.631Z,6.70
2022-10-21T08:59:42.019Z,6.80
2022-10-21T09:02:29.913Z,5.43
2022-10-21T09:05:16.786Z,6.13
2022-10-21T09:07:52.471Z,5.60
2022-10-21T09:10:28.957Z,5.57
2022-10-21T09:13:05.157Z,6.63
2022-10-21T09:15:43.638Z,5.80
2022-10-21T09:18:26.853Z,6.60
2022-10-21T09:21:05.638Z,6.30
2022-10-21T09:23:42.088Z,5.97
2022-10-21T09:26:19.644Z,7.40
2022-10-21T09:28:48.550Z,6.50
2022-10-21T09:31:21.215Z,6.70
2022-10-21T09:33:54.612Z,6.63
2022-10-21T09:36:27.170Z,7.23
2022-10-21T09:38:59.210Z,6.90
2022-10-21T09:41:32.262Z,6.27
2022-10-21T09:44:00.090Z,5.90
2022-10-21T09:46:29.300Z,6.00
2022-10-21T09:51:46.932Z,6.00
2022-10-21T09:54:18.783Z,5.80
2022-10-21T09:56:51.164Z,6.13
2022-10-21T09:59:22.646Z,6.03
2022-10-21T10:01:52.440Z,6.10
2022-10-21T10:04:25.126Z,5.87
2022-10-21T10:06:53.340Z,6.17
2022-10-21T10:09:27.616Z,6.03
2022-10-21T10:11:58.281Z,5.03
2022-10-21T10:14:35.720Z,5.27
2022-10-21T10:17:37.127Z,5.00
2022-10-21T10:20:18.310Z,5.23
2022-10-21T10:22:47.915Z,6.00
2022-10-21T10:25:24.053Z,5.10
2022-10-21T10:27:54.463Z,5.60
2022-10-21T10:30:23.880Z,5.90
2022-10-21T10:32:55.856Z,5.53
2022-10-21T10:35:31.106Z,4.17
2022-10-21T10:38:02.183Z,4.83
2022-10-21T10:40:33.995Z,4.13
2022-10-21T10:43:07.279Z,4.00
2022-10-21T10:45:36.195Z,4.60
2022-10-21T10:48:07.087Z,3.77
2022-10-21T10:50:43.184Z,3.80
2022-10-21T10:53:29.409Z,3.23
2022-10-21T10:56:05.109Z,3.10
2022-10-21T10:58:36.844Z,2.20
2022-10-21T11:01:10.634Z,2.20
2022-10-21T11:03:46.091Z,2.13
2022-10-21T11:06:17.435Z,2.03
2022-10-21T11:08:50.337Z,2.20
2022-10-21T11:11:25.904Z,1.60
2022-10-21T11:13:54.624Z,1.40
2022-10-21T11:16:59.127Z,1.20
2022-10-21T11:19:36.335Z,1.20
2022-10-21T11:22:14.260Z,1.20
2022-10-21T11:24:56.814Z,1.43
2022-10-21T11:27:34.626Z,1.20
2022-10-21T11:30:10.951Z,1.13
2022-10-21T11:32:54.935Z,1.30
2022-10-21T11:35:36.581Z,1.10
2022-10-21T11:38:18.433Z,1.00
2022-10-21T11:40:50.140Z,1.20
2022-10-21T11:43:29.830Z,1.03
2022-10-21T11:46:05.446Z,0.97
2022-10-21T11:48:57.289Z,0.90
2022-10-21T11:51:37.125Z,1.00
2022-10-21T11:54:30.150Z,0.90
2022-10-21T11:57:04.927Z,0.97
2022-10-21T11:59:48.197Z,0.90
2022-10-21T12:02:24.650Z,0.90
2022-10-21T12:05:02.027Z,1.03
2022-10-21T12:07:43.019Z,1.50
2022-10-21T12:10:30.210Z,1.00
2022-10-21T12:13:03.109Z,0.90
2022-10-21T12:15:38.806Z,0.90
2022-10-21T12:18:07.309Z,1.00
2022-10-21T12:20:35.441Z,1.00
2022-10-21T12:23:07.123Z,0.93
2022-10-21T12:25:42.539Z,1.00
2022-10-21T12:28:18.219Z,0.90
2022-10-21T12:30:54.297Z,1.07
2022-10-21T12:33:35.002Z,1.00
2022-10-21T12:36:39.722Z,1.00
2022-10-21T12:39:13.531Z,0.90
2022-10-21T12:41:41.932Z,1.00
2022-10-21T12:44:28.711Z,1.10
2022-10-21T12:46:57.912Z,1.13
2022-10-21T12:49:30.495Z,1.50
2022-10-21T12:52:06.047Z,1.40
2022-10-21T12:54:42.748Z,1.40
2022-10-21T12:57:22.043Z,1.20
2022-10-21T12:59:49.939Z,1.20
2022-10-21T13:02:28.016Z,1.27
2022-10-21T13:04:57.675Z,1.20
2022-10-21T13:07:39.235Z,1.50
2022-10-21T13:10:26.950Z,1.40
2022-10-21T13:13:28.282Z,1.47
2022-10-21T13:15:56.491Z,1.50
2022-10-21T13:18:52.671Z,1.30
2022-10-21T13:21:41.582Z,1.30
2022-10-21T13:24:25.728Z,1.20
2022-10-21T13:26:57.159Z,1.23
2022-10-21T13:29:31.486Z,1.30
2022-10-21T13:32:22.246Z,1.30
2022-10-21T13:35:20.333Z,1.60
2022-10-21T13:37:55.380Z,1.53
2022-10-21T13:40:27.271Z,1.47
2022-10-21T13:43:00.061Z,1.50
2022-10-21T13:45:31.082Z,1.20
2022-10-21T13:48:04.880Z,1.40
2022-10-21T13:50:38.395Z,1.20
2022-10-21T13:53:29.442Z,1.30
2022-10-21T13:55:59.774Z,1.27
2022-10-21T13:58:30.474Z,1.20
2022-10-21T14:00:59.191Z,1.47
2022-10-21T14:03:27.912Z,1.20
2022-10-21T14:05:59.388Z,1.30
2022-10-21T14:08:31.696Z,1.27
2022-10-21T14:11:01.949Z,1.50
2022-10-21T14:13:36.367Z,1.20
2022-10-21T14:16:05.635Z,1.33
2022-10-21T14:18:37.435Z,1.20
2022-10-21T14:21:07.534Z,1.50
2022-10-21T14:23:35.811Z,1.50
2022-10-21T14:26:07.356Z,1.10
2022-10-21T14:28:37.723Z,1.30
2022-10-21T14:31:11.292Z,1.27
2022-10-21T14:33:41.707Z,1.30
2022-10-21T14:36:18.799Z,1.17
2022-10-21T14:38:54.538Z,1.17
2022-10-21T14:41:26.066Z,1.10
2022-10-21T14:43:56.611Z,1.30
2022-10-21T14:46:24.523Z,1.30
2022-10-21T14:48:54.916Z,1.20
2022-10-21T14:51:23.557Z,1.30
2022-10-21T14:53:55.749Z,1.20
2022-10-21T14:56:29.147Z,1.20
2022-10-21T14:59:00.398Z,1.30
2022-10-21T15:01:28.630Z,1.33
2022-10-21T15:03:58.369Z,1.43
2022-10-21T15:06:27.744Z,1.30
2022-10-21T15:09:07.723Z,1.60
2022-10-21T15:11:41.682Z,1.50
2022-10-21T15:14:31.749Z,1.37
2022-10-21T15:17:02.633Z,1.50
2022-10-21T15:19:45.555Z,1.40
2022-10-21T15:22:27.241Z,1.40
2022-10-21T15:25:00.289Z,1.30
2022-10-21T15:27:35.112Z,1.50
2022-10-21T15:30:17.999Z,1.50
2022-10-21T15:32:45.843Z,1.40
2022-10-21T15:35:15.134Z,1.30
2022-10-21T15:37:43.023Z,1.30
2022-10-21T15:40:11.760Z,1.40
2022-10-21T15:42:39.574Z,1.37
2022-10-21T15:45:16.931Z,1.30
2022-10-21T15:47:44.940Z,1.53
2022-10-21T15:50:16.752Z,1.40
2022-10-21T15:52:44.894Z,1.40
2022-10-21T15:55:12.886Z,1.23
2022-10-21T15:57:41.973Z,1.40
2022-10-21T16:00:19.323Z,1.50
2022-10-21T16:02:47.620Z,1.20
2022-10-21T16:05:16.324Z,1.50
2022-10-21T16:07:44.297Z,1.43
2022-10-21T16:10:18.962Z,1.50
2022-10-21T16:12:46.934Z,1.50
2022-10-21T16:15:15.026Z,1.60
2022-10-21T16:17:46.396Z,1.60
2022-10-21T16:20:16.322Z,1.60
2022-10-21T16:22:44.191Z,1.60
2022-10-21T16:25:12.300Z,1.60
2022-10-21T16:27:54.743Z,1.57
2022-10-21T16:30:25.040Z,1.80
2022-10-21T16:32:54.273Z,1.80
2022-10-21T16:35:22.562Z,1.90
2022-10-21T16:37:51.004Z,1.70
2022-10-21T16:40:21.976Z,1.70
2022-10-21T16:42:50.632Z,1.90
2022-10-21T16:45:19.535Z,1.83
2022-10-21T16:47:52.577Z,2.30
2022-10-21T16:50:23.775Z,1.90
2022-10-21T16:52:51.599Z,1.77
2022-10-21T16:55:19.975Z,1.60
2022-10-21T16:57:47.781Z,1.90
2022-10-21T17:00:17.900Z,1.80
2022-10-21T17:02:48.436Z,2.13
2022-10-21T17:05:18.281Z,1.80
2022-10-21T17:07:47.446Z,1.50
2022-10-21T17:10:15.291Z,1.40
2022-10-21T17:12:43.558Z,1.80
2022-10-21T17:15:14.912Z,1.60
2022-10-21T17:17:42.953Z,1.70
2022-10-21T17:20:11.870Z,1.80
2022-10-21T17:22:39.780Z,1.83
2022-10-21T17:25:10.935Z,1.60
2022-10-21T17:27:39.126Z,1.70
2022-10-21T17:30:07.886Z,3.07
2022-10-21T17:32:36.169Z,2.10
2022-10-21T17:35:04.077Z,1.80
2022-10-21T17:37:31.909Z,1.70
2022-10-21T17:39:59.714Z,1.77
2022-10-21T17:42:28.856Z,2.00
2022-10-21T17:44:58.197Z,1.90
2022-10-21T17:47:26.176Z,1.80
2022-10-21T17:49:54.014Z,1.67
2022-10-21T17:52:21.825Z,1.93
2022-10-21T17:54:49.624Z,1.70
2022-10-21T17:57:17.492Z,1.60
2022-10-21T17:59:50.188Z,1.80
2022-10-21T18:02:18.110Z,1.77
2022-10-21T18:04:45.904Z,1.77
2022-10-21T18:07:16.946Z,1.80
2022-10-21T18:09:45.624Z,1.63
2022-10-21T18:12:14.222Z,1.70
2022-10-21T18:14:42.050Z,1.73
2022-10-21T18:17:11.732Z,1.80
2022-10-21T18:19:39.835Z,1.70
2022-10-21T18:22:07.640Z,2.00
2022-10-21T18:24:35.907Z,2.20
2022-10-21T18:27:03.930Z,2.20
2022-10-21T18:29:31.737Z,2.30
2022-10-21T18:31:59.598Z,1.97
2022-10-21T18:34:28.995Z,2.20
2022-10-21T18:36:59.404Z,2.27
2022-10-21T18:39:27.737Z,2.10
2022-10-21T18:41:55.617Z,2.10
2022-10-21T18:44:23.487Z,2.27
2022-10-21T18:46:53.778Z,2.03
2022-10-21T18:49:23.808Z,2.50
2022-10-21T18:51:52.968Z,2.17
2022-10-21T18:54:20.809Z,2.40
2022-10-21T18:56:48.640Z,2.13
2022-10-21T18:59:16.442Z,2.70
2022-10-21T19:01:44.450Z,2.30
2022-10-21T19:06:43.394Z,2.30
2022-10-21T19:09:15.154Z,2.53
2022-10-21T19:11:44.231Z,2.37
2022-10-21T19:14:14.403Z,2.20
2022-10-21T19:16:43.147Z,2.40
2022-10-21T19:19:11.118Z,2.03
2022-10-21T19:21:39.507Z,2.13
2022-10-21T19:24:07.918Z,2.37
2022-10-21T19:26:40.224Z,2.00
2022-10-21T19:29:10.385Z,2.00
2022-10-21T19:31:38.701Z,1.77
2022-10-21T19:34:07.199Z,2.10
2022-10-21T19:36:35.111Z,1.80
2022-10-21T19:39:03.058Z,2.00
2022-10-21T19:41:30.955Z,2.00
2022-10-21T19:44:00.142Z,2.20
2022-10-21T19:46:29.459Z,2.03
2022-10-21T19:48:57.544Z,2.00
2022-10-21T19:51:27.021Z,2.27
2022-10-21T19:53:55.640Z,2.30
2022-10-21T19:56:27.735Z,2.33
2022-10-21T19:58:57.660Z,2.20
2022-10-21T20:01:27.713Z,2.20
2022-10-21T20:03:56.187Z,2.37
2022-10-21T20:06:27.339Z,2.30
2022-10-21T20:08:55.516Z,2.10
2022-10-21T20:11:23.521Z,2.70
2022-10-21T20:13:51.368Z,2.27
2022-10-21T20:16:21.795Z,2.60
2022-10-21T20:18:51.179Z,2.80
2022-10-21T20:21:19.518Z,2.43
2022-10-21T20:23:47.368Z,2.40
2022-10-21T20:26:15.188Z,2.70
2022-10-21T20:28:43.320Z,2.70
2022-10-21T20:31:12.698Z,2.60
2022-10-21T20:33:42.451Z,2.90
2022-10-21T20:36:14.294Z,2.67
2022-10-21T20:38:42.208Z,3.10
2022-10-21T20:41:12.410Z,2.93
2022-10-21T20:43:41.697Z,2.93
2022-10-21T20:46:11.492Z,3.33
2022-10-21T20:48:42.615Z,3.87
2022-10-21T20:51:14.241Z,3.97
2022-10-21T20:53:45.635Z,4.20
2022-10-21T20:56:13.534Z,4.00
2022-10-21T20:58:42.342Z,4.20
2022-10-21T21:01:12.557Z,4.83
2022-10-21T21:03:42.542Z,4.87
2022-10-21T21:06:12.964Z,5.03
2022-10-21T21:08:48.734Z,4.77
2022-10-21T21:11:22.153Z,5.47
2022-10-21T21:13:50.195Z,5.83
2022-10-21T21:16:20.213Z,5.30
2022-10-21T21:18:52.717Z,6.03
2022-10-21T21:21:23.411Z,6.00
2022-10-21T21:23:52.104Z,6.17
2022-10-21T21:26:22.220Z,6.03
2022-10-21T21:28:51.648Z,5.77
2022-10-21T21:31:21.034Z,5.97
2022-10-21T21:33:48.924Z,5.50
2022-10-21T21:36:18.397Z,5.13
2022-10-21T21:38:47.790Z,5.10
2022-10-21T21:41:16.592Z,4.63
2022-10-21T21:43:46.668Z,4.83
2022-10-21T21:46:22.492Z,4.63
2022-10-21T21:48:53.893Z,4.27
2022-10-21T21:51:24.330Z,4.30
2022-10-21T21:53:53.975Z,4.10
2022-10-21T21:56:23.250Z,3.40
2022-10-21T21:58:54.569Z,3.87
2022-10-21T22:01:24.253Z,3.60
2022-10-21T22:03:52.630Z,3.13
2022-10-21T22:06:21.601Z,3.40
2022-10-21T22:08:50.120Z,4.00
2022-10-21T22:11:21.213Z,3.90
2022-10-21T22:13:49.143Z,3.47
2022-10-21T22:16:18.603Z,3.67
2022-10-21T22:18:46.459Z,3.53
2022-10-21T22:21:16.867Z,3.63
2022-10-21T22:23:45.928Z,3.27
2022-10-21T22:26:14.875Z,3.50
2022-10-21T22:28:45.738Z,3.50
2022-10-21T22:31:16.457Z,3.50
2022-10-21T22:33:45.122Z,3.63
2022-10-21T22:36:12.968Z,3.80
2022-10-21T22:38:40.903Z,3.60
2022-10-21T22:41:12.443Z,3.80
2022-10-21T22:43:40.806Z,3.50
2022-10-21T22:46:22.049Z,3.40
2022-10-21T22:48:57.529Z,3.27
2022-10-21T22:51:25.363Z,3.70
2022-10-21T22:53:55.606Z,3.90
2022-10-21T22:56:24.986Z,3.60
2022-10-21T22:58:52.817Z,3.93
2022-10-21T23:01:23.782Z,4.60
2022-10-21T23:03:52.550Z,4.80
2022-10-21T23:06:20.418Z,4.50
2022-10-21T23:08:48.259Z,4.77
2022-10-21T23:11:16.159Z,4.33
2022-10-21T23:13:56.271Z,5.23
2022-10-21T23:16:32.412Z,4.27
2022-10-21T23:19:00.663Z,4.20
2022-10-21T23:21:28.823Z,4.03
2022-10-21T23:23:56.850Z,4.00
2022-10-21T23:26:24.955Z,4.43
2022-10-21T23:28:53.067Z,4.37
2022-10-21T23:31:20.990Z,5.00
2022-10-21T23:33:50.158Z,4.80
2022-10-21T23:36:18.151Z,5.20
2022-10-21T23:38:45.931Z,4.93
2022-10-21T23:41:13.749Z,4.80
2022-10-21T23:43:41.834Z,4.87
2022-10-21T23:46:09.726Z,4.10
2022-10-21T23:48:37.511Z,4.93
2022-10-21T23:53:52.612Z,4.27
2022-10-21T23:56:20.570Z,4.73
2022-10-21T23:58:48.421Z,4.47
